sensor_id;sensor_type;location;lat;lon;timestamp;P1;durP1;ratioP1;P2;durP2;ratioP2
18532;SDS011;9396;51.510;11.934;2023-07-20T00:01:33;4.27;;;2.13;;
18532;SDS011;9396;51.510;11.934;2023-07-20T00:04:00;4.80;;;2.30;;
18532;SDS011;9396;51.510;11.934;2023-07-20T00:06:26;2.93;;;1.90;;
18532;SDS011;9396;51.510;11.934;2023-07-20T00:08:53;6.10;;;2.20;;
18532;SDS011;9396;51.510;11.934;2023-07-20T00:11:20;2.73;;;2.10;;
18532;SDS011;9396;51.510;11.934;2023-07-20T00:13:47;3.83;;;2.00;;
18532;SDS011;9396;51.510;11.934;2023-07-20T00:16:15;4.37;;;2.10;;
18532;SDS011;9396;51.510;11.934;2023-07-20T00:18:41;2.43;;;1.87;;
18532;SDS011;9396;51.510;11.934;2023-07-20T00:21:08;2.60;;;2.00;;
18532;SDS011;9396;51.510;11.934;2023-07-20T00:23:35;5.37;;;2.20;;
18532;SDS011;9396;51.510;11.934;2023-07-20T00:26:02;3.27;;;2.00;;
18532;SDS011;9396;51.510;11.934;2023-07-20T00:28:29;4.77;;;1.93;;
18532;SDS011;9396;51.510;11.934;2023-07-20T00:30:55;2.93;;;1.90;;
18532;SDS011;9396;51.510;11.934;2023-07-20T00:33:24;5.17;;;2.23;;
18532;SDS011;9396;51.510;11.934;2023-07-20T00:35:50;4.23;;;2.27;;
18532;SDS011;9396;51.510;11.934;2023-07-20T00:38:17;3.23;;;2.20;;
18532;SDS011;9396;51.510;11.934;2023-07-20T00:40:44;2.50;;;1.83;;
18532;SDS011;9396;51.510;11.934;2023-07-20T00:43:11;3.83;;;2.40;;
18532;SDS011;9396;51.510;11.934;2023-07-20T00:45:37;5.67;;;2.20;;
18532;SDS011;9396;51.510;11.934;2023-07-20T00:48:04;4.13;;;2.30;;
18532;SDS011;9396;51.510;11.934;2023-07-20T00:50:35;3.60;;;2.20;;
18532;SDS011;9396;51.510;11.934;2023-07-20T00:53:02;4.10;;;2.10;;
18532;SDS011;9396;51.510;11.934;2023-07-20T00:55:32;4.73;;;2.20;;
18532;SDS011;9396;51.510;11.934;2023-07-20T00:57:59;6.50;;;2.30;;
18532;SDS011;9396;51.510;11.934;2023-07-20T01:00:25;3.80;;;2.03;;
18532;SDS011;9396;51.510;11.934;2023-07-20T01:02:52;3.40;;;2.00;;
18532;SDS011;9396;51.510;11.934;2023-07-20T01:05:19;3.47;;;2.33;;
18532;SDS011;9396;51.510;11.934;2023-07-20T01:07:51;2.97;;;2.10;;
18532;SDS011;9396;51.510;11.934;2023-07-20T01:10:28;3.80;;;2.50;;
18532;SDS011;9396;51.510;11.934;2023-07-20T01:12:58;5.13;;;2.60;;
18532;SDS011;9396;51.510;11.934;2023-07-20T01:15:27;8.13;;;2.50;;
18532;SDS011;9396;51.510;11.934;2023-07-20T01:17:54;4.23;;;2.37;;
18532;SDS011;9396;51.510;11.934;2023-07-20T01:20:21;3.50;;;2.20;;
18532;SDS011;9396;51.510;11.934;2023-07-20T01:23:10;5.33;;;2.13;;
18532;SDS011;9396;51.510;11.934;2023-07-20T01:26:02;3.27;;;2.33;;
18532;SDS011;9396;51.510;11.934;2023-07-20T01:28:49;4.23;;;2.40;;
18532;SDS011;9396;51.510;11.934;2023-07-20T01:31:32;5.00;;;2.93;;
18532;SDS011;9396;51.510;11.934;2023-07-20T01:34:01;3.20;;;2.30;;
18532;SDS011;9396;51.510;11.934;2023-07-20T01:36:30;4.00;;;2.50;;
18532;SDS011;9396;51.510;11.934;2023-07-20T01:38:59;4.93;;;2.60;;
18532;SDS011;9396;51.510;11.934;2023-07-20T01:41:27;5.33;;;2.50;;
18532;SDS011;9396;51.510;11.934;2023-07-20T01:43:57;5.37;;;2.20;;
18532;SDS011;9396;51.510;11.934;2023-07-20T01:46:24;2.93;;;2.33;;
18532;SDS011;9396;51.510;11.934;2023-07-20T01:48:53;4.30;;;2.43;;
18532;SDS011;9396;51.510;11.934;2023-07-20T01:51:20;3.73;;;2.47;;
18532;SDS011;9396;51.510;11.934;2023-07-20T01:53:46;3.70;;;2.40;;
18532;SDS011;9396;51.510;11.934;2023-07-20T01:56:13;4.93;;;2.53;;
18532;SDS011;9396;51.510;11.934;2023-07-20T01:58:40;2.73;;;2.37;;
18532;SDS011;9396;51.510;11.934;2023-07-20T02:01:06;4.13;;;2.60;;
18532;SDS011;9396;51.510;11.934;2023-07-20T02:03:33;6.37;;;2.33;;
18532;SDS011;9396;51.510;11.934;2023-07-20T02:06:02;6.47;;;2.70;;
18532;SDS011;9396;51.510;11.934;2023-07-20T02:08:28;4.90;;;2.67;;
18532;SDS011;9396;51.510;11.934;2023-07-20T02:10:55;5.13;;;2.30;;
18532;SDS011;9396;51.510;11.934;2023-07-20T02:13:22;7.93;;;2.83;;
18532;SDS011;9396;51.510;11.934;2023-07-20T02:15:48;4.03;;;2.80;;
18532;SDS011;9396;51.510;11.934;2023-07-20T02:18:16;4.77;;;2.60;;
18532;SDS011;9396;51.510;11.934;2023-07-20T02:20:42;8.90;;;2.97;;
18532;SDS011;9396;51.510;11.934;2023-07-20T02:23:11;9.03;;;2.90;;
18532;SDS011;9396;51.510;11.934;2023-07-20T02:25:37;3.77;;;2.50;;
18532;SDS011;9396;51.510;11.934;2023-07-20T02:28:04;6.00;;;2.80;;
18532;SDS011;9396;51.510;11.934;2023-07-20T02:30:31;6.40;;;2.80;;
18532;SDS011;9396;51.510;11.934;2023-07-20T02:32:57;3.57;;;2.57;;
18532;SDS011;9396;51.510;11.934;2023-07-20T02:35:24;5.30;;;3.00;;
18532;SDS011;9396;51.510;11.934;2023-07-20T02:37:51;7.00;;;2.97;;
18532;SDS011;9396;51.510;11.934;2023-07-20T02:40:19;7.13;;;2.87;;
18532;SDS011;9396;51.510;11.934;2023-07-20T02:42:46;3.87;;;2.53;;
18532;SDS011;9396;51.510;11.934;2023-07-20T02:45:13;6.17;;;2.77;;
18532;SDS011;9396;51.510;11.934;2023-07-20T02:47:39;4.60;;;2.60;;
18532;SDS011;9396;51.510;11.934;2023-07-20T02:50:07;6.90;;;3.03;;
18532;SDS011;9396;51.510;11.934;2023-07-20T02:52:34;6.37;;;3.00;;
18532;SDS011;9396;51.510;11.934;2023-07-20T02:55:01;5.37;;;2.83;;
18532;SDS011;9396;51.510;11.934;2023-07-20T02:57:29;5.50;;;2.93;;
18532;SDS011;9396;51.510;11.934;2023-07-20T02:59:56;4.20;;;3.17;;
18532;SDS011;9396;51.510;11.934;2023-07-20T03:02:22;7.50;;;3.20;;
18532;SDS011;9396;51.510;11.934;2023-07-20T03:04:49;9.07;;;3.07;;
18532;SDS011;9396;51.510;11.934;2023-07-20T03:07:15;6.60;;;3.40;;
18532;SDS011;9396;51.510;11.934;2023-07-20T03:09:42;8.07;;;3.03;;
18532;SDS011;9396;51.510;11.934;2023-07-20T03:12:09;5.43;;;3.00;;
18532;SDS011;9396;51.510;11.934;2023-07-20T03:14:37;8.10;;;3.17;;
18532;SDS011;9396;51.510;11.934;2023-07-20T03:17:04;5.97;;;2.70;;
18532;SDS011;9396;51.510;11.934;2023-07-20T03:19:32;7.73;;;2.97;;
18532;SDS011;9396;51.510;11.934;2023-07-20T03:21:59;9.17;;;3.00;;
18532;SDS011;9396;51.510;11.934;2023-07-20T03:24:25;8.00;;;3.13;;
18532;SDS011;9396;51.510;11.934;2023-07-20T03:26:52;10.53;;;3.60;;
18532;SDS011;9396;51.510;11.934;2023-07-20T03:29:18;7.03;;;3.40;;
18532;SDS011;9396;51.510;11.934;2023-07-20T03:31:46;7.30;;;3.30;;
18532;SDS011;9396;51.510;11.934;2023-07-20T03:34:13;9.67;;;3.80;;
18532;SDS011;9396;51.510;11.934;2023-07-20T03:36:39;11.37;;;3.47;;
18532;SDS011;9396;51.510;11.934;2023-07-20T03:39:06;8.77;;;3.13;;
18532;SDS011;9396;51.510;11.934;2023-07-20T03:41:33;6.60;;;3.60;;
18532;SDS011;9396;51.510;11.934;2023-07-20T03:43:59;11.87;;;3.97;;
18532;SDS011;9396;51.510;11.934;2023-07-20T03:46:26;5.10;;;3.47;;
18532;SDS011;9396;51.510;11.934;2023-07-20T03:48:54;11.57;;;3.87;;
18532;SDS011;9396;51.510;11.934;2023-07-20T03:51:21;13.50;;;3.73;;
18532;SDS011;9396;51.510;11.934;2023-07-20T03:53:47;8.43;;;3.90;;
18532;SDS011;9396;51.510;11.934;2023-07-20T03:56:14;7.50;;;3.67;;
18532;SDS011;9396;51.510;11.934;2023-07-20T03:58:41;7.17;;;3.60;;
18532;SDS011;9396;51.510;11.934;2023-07-20T04:01:07;10.67;;;4.27;;
18532;SDS011;9396;51.510;11.934;2023-07-20T04:03:34;9.80;;;4.00;;
18532;SDS011;9396;51.510;11.934;2023-07-20T04:06:02;7.50;;;3.40;;
18532;SDS011;9396;51.510;11.934;2023-07-20T04:08:29;4.27;;;3.67;;
18532;SDS011;9396;51.510;11.934;2023-07-20T04:10:56;3.60;;;3.00;;
18532;SDS011;9396;51.510;11.934;2023-07-20T04:13:23;5.93;;;3.30;;
18532;SDS011;9396;51.510;11.934;2023-07-20T04:15:50;12.30;;;3.63;;
18532;SDS011;9396;51.510;11.934;2023-07-20T04:18:16;7.13;;;3.50;;
18532;SDS011;9396;51.510;11.934;2023-07-20T04:20:43;5.40;;;3.27;;
18532;SDS011;9396;51.510;11.934;2023-07-20T04:23:11;14.23;;;3.90;;
18532;SDS011;9396;51.510;11.934;2023-07-20T04:25:39;11.97;;;3.70;;
18532;SDS011;9396;51.510;11.934;2023-07-20T04:28:06;8.87;;;3.77;;
18532;SDS011;9396;51.510;11.934;2023-07-20T04:30:34;8.40;;;3.67;;
18532;SDS011;9396;51.510;11.934;2023-07-20T04:33:02;11.73;;;3.90;;
18532;SDS011;9396;51.510;11.934;2023-07-20T04:35:45;11.03;;;4.00;;
18532;SDS011;9396;51.510;11.934;2023-07-20T04:38:15;8.80;;;4.03;;
18532;SDS011;9396;51.510;11.934;2023-07-20T04:40:43;9.30;;;3.93;;
18532;SDS011;9396;51.510;11.934;2023-07-20T04:43:10;6.90;;;3.70;;
18532;SDS011;9396;51.510;11.934;2023-07-20T04:45:36;9.20;;;3.77;;
18532;SDS011;9396;51.510;11.934;2023-07-20T04:48:04;8.73;;;4.23;;
18532;SDS011;9396;51.510;11.934;2023-07-20T04:50:33;8.00;;;3.40;;
18532;SDS011;9396;51.510;11.934;2023-07-20T04:52:59;11.03;;;3.97;;
18532;SDS011;9396;51.510;11.934;2023-07-20T04:55:28;9.33;;;4.23;;
18532;SDS011;9396;51.510;11.934;2023-07-20T04:57:55;14.07;;;4.30;;
18532;SDS011;9396;51.510;11.934;2023-07-20T05:00:21;7.13;;;4.00;;
18532;SDS011;9396;51.510;11.934;2023-07-20T05:02:48;8.03;;;3.97;;
18532;SDS011;9396;51.510;11.934;2023-07-20T05:05:15;5.90;;;3.80;;
18532;SDS011;9396;51.510;11.934;2023-07-20T05:07:42;8.80;;;4.37;;
18532;SDS011;9396;51.510;11.934;2023-07-20T05:10:09;10.23;;;3.97;;
18532;SDS011;9396;51.510;11.934;2023-07-20T05:12:37;6.23;;;4.07;;
18532;SDS011;9396;51.510;11.934;2023-07-20T05:15:04;9.67;;;4.23;;
18532;SDS011;9396;51.510;11.934;2023-07-20T05:17:31;8.47;;;3.80;;
18532;SDS011;9396;51.510;11.934;2023-07-20T05:19:58;5.10;;;3.93;;
18532;SDS011;9396;51.510;11.934;2023-07-20T05:22:25;10.50;;;3.83;;
18532;SDS011;9396;51.510;11.934;2023-07-20T05:24:51;8.00;;;3.97;;
18532;SDS011;9396;51.510;11.934;2023-07-20T05:27:18;9.10;;;4.27;;
18532;SDS011;9396;51.510;11.934;2023-07-20T05:29:46;8.43;;;4.10;;
18532;SDS011;9396;51.510;11.934;2023-07-20T05:32:13;8.57;;;3.87;;
18532;SDS011;9396;51.510;11.934;2023-07-20T05:34:40;4.87;;;3.73;;
18532;SDS011;9396;51.510;11.934;2023-07-20T05:37:07;12.10;;;3.90;;
18532;SDS011;9396;51.510;11.934;2023-07-20T05:39:33;10.97;;;3.97;;
18532;SDS011;9396;51.510;11.934;2023-07-20T05:42:00;8.47;;;4.30;;
18532;SDS011;9396;51.510;11.934;2023-07-20T05:44:27;8.80;;;3.97;;
18532;SDS011;9396;51.510;11.934;2023-07-20T05:46:55;4.97;;;4.03;;
18532;SDS011;9396;51.510;11.934;2023-07-20T05:49:22;14.30;;;4.30;;
18532;SDS011;9396;51.510;11.934;2023-07-20T05:51:48;20.87;;;3.87;;
18532;SDS011;9396;51.510;11.934;2023-07-20T05:54:15;10.93;;;3.67;;
18532;SDS011;9396;51.510;11.934;2023-07-20T05:56:42;8.40;;;3.80;;
18532;SDS011;9396;51.510;11.934;2023-07-20T05:59:08;9.77;;;3.60;;
18532;SDS011;9396;51.510;11.934;2023-07-20T06:01:35;5.47;;;4.03;;
18532;SDS011;9396;51.510;11.934;2023-07-20T06:04:03;11.07;;;3.80;;
18532;SDS011;9396;51.510;11.934;2023-07-20T06:06:30;6.80;;;3.73;;
18532;SDS011;9396;51.510;11.934;2023-07-20T06:08:56;6.20;;;3.27;;
18532;SDS011;9396;51.510;11.934;2023-07-20T06:11:23;9.23;;;3.33;;
18532;SDS011;9396;51.510;11.934;2023-07-20T06:13:50;11.17;;;3.10;;
18532;SDS011;9396;51.510;11.934;2023-07-20T06:16:17;7.67;;;3.40;;
18532;SDS011;9396;51.510;11.934;2023-07-20T06:18:43;11.03;;;3.57;;
18532;SDS011;9396;51.510;11.934;2023-07-20T06:21:12;9.43;;;3.93;;
18532;SDS011;9396;51.510;11.934;2023-07-20T06:23:38;8.03;;;3.93;;
18532;SDS011;9396;51.510;11.934;2023-07-20T06:26:05;7.80;;;3.80;;
18532;SDS011;9396;51.510;11.934;2023-07-20T06:28:32;6.17;;;3.30;;
18532;SDS011;9396;51.510;11.934;2023-07-20T06:30:59;6.23;;;4.10;;
18532;SDS011;9396;51.510;11.934;2023-07-20T06:33:27;5.30;;;3.40;;
18532;SDS011;9396;51.510;11.934;2023-07-20T06:35:53;13.37;;;3.80;;
18532;SDS011;9396;51.510;11.934;2023-07-20T06:38:23;11.57;;;3.47;;
18532;SDS011;9396;51.510;11.934;2023-07-20T06:40:50;11.07;;;3.70;;
18532;SDS011;9396;51.510;11.934;2023-07-20T06:43:17;9.13;;;3.63;;
18532;SDS011;9396;51.510;11.934;2023-07-20T06:45:44;7.80;;;4.10;;
18532;SDS011;9396;51.510;11.934;2023-07-20T06:48:10;10.83;;;4.00;;
18532;SDS011;9396;51.510;11.934;2023-07-20T06:50:37;7.20;;;3.63;;
18532;SDS011;9396;51.510;11.934;2023-07-20T06:53:04;5.63;;;4.20;;
18532;SDS011;9396;51.510;11.934;2023-07-20T06:55:32;10.73;;;4.13;;
18532;SDS011;9396;51.510;11.934;2023-07-20T06:57:58;8.93;;;3.83;;
18532;SDS011;9396;51.510;11.934;2023-07-20T07:00:25;6.93;;;3.40;;
18532;SDS011;9396;51.510;11.934;2023-07-20T07:02:51;7.40;;;4.30;;
18532;SDS011;9396;51.510;11.934;2023-07-20T07:05:18;7.30;;;3.90;;
18532;SDS011;9396;51.510;11.934;2023-07-20T07:07:45;11.40;;;4.30;;
18532;SDS011;9396;51.510;11.934;2023-07-20T07:10:11;5.20;;;4.27;;
18532;SDS011;9396;51.510;11.934;2023-07-20T07:12:40;8.97;;;4.63;;
18532;SDS011;9396;51.510;11.934;2023-07-20T07:15:07;5.67;;;4.30;;
18532;SDS011;9396;51.510;11.934;2023-07-20T07:17:35;8.60;;;4.57;;
18532;SDS011;9396;51.510;11.934;2023-07-20T07:20:02;7.57;;;4.17;;
18532;SDS011;9396;51.510;11.934;2023-07-20T07:22:30;7.37;;;4.07;;
18532;SDS011;9396;51.510;11.934;2023-07-20T07:24:56;25.53;;;6.43;;
18532;SDS011;9396;51.510;11.934;2023-07-20T07:27:23;8.47;;;3.80;;
18532;SDS011;9396;51.510;11.934;2023-07-20T07:29:51;7.67;;;3.90;;
18532;SDS011;9396;51.510;11.934;2023-07-20T07:32:18;8.30;;;4.40;;
18532;SDS011;9396;51.510;11.934;2023-07-20T07:34:44;6.73;;;4.03;;
18532;SDS011;9396;51.510;11.934;2023-07-20T07:37:13;6.63;;;4.63;;
18532;SDS011;9396;51.510;11.934;2023-07-20T07:39:40;11.97;;;4.97;;
18532;SDS011;9396;51.510;11.934;2023-07-20T07:42:06;9.17;;;5.33;;
18532;SDS011;9396;51.510;11.934;2023-07-20T07:44:33;12.03;;;5.40;;
18532;SDS011;9396;51.510;11.934;2023-07-20T07:47:01;7.70;;;5.10;;
18532;SDS011;9396;51.510;11.934;2023-07-20T07:49:28;4.77;;;4.27;;
18532;SDS011;9396;51.510;11.934;2023-07-20T07:51:54;5.87;;;5.37;;
18532;SDS011;9396;51.510;11.934;2023-07-20T07:54:21;5.73;;;4.50;;
18532;SDS011;9396;51.510;11.934;2023-07-20T07:56:47;10.23;;;4.93;;
18532;SDS011;9396;51.510;11.934;2023-07-20T07:59:16;9.90;;;4.90;;
18532;SDS011;9396;51.510;11.934;2023-07-20T08:01:43;8.00;;;4.70;;
18532;SDS011;9396;51.510;11.934;2023-07-20T08:04:11;7.83;;;4.30;;
18532;SDS011;9396;51.510;11.934;2023-07-20T08:06:38;5.30;;;4.80;;
18532;SDS011;9396;51.510;11.934;2023-07-20T08:09:05;5.40;;;4.70;;
18532;SDS011;9396;51.510;11.934;2023-07-20T08:11:32;7.40;;;4.40;;
18532;SDS011;9396;51.510;11.934;2023-07-20T08:13:59;12.33;;;3.40;;
18532;SDS011;9396;51.510;11.934;2023-07-20T08:16:26;9.27;;;3.63;;
18532;SDS011;9396;51.510;11.934;2023-07-20T08:18:52;5.43;;;3.83;;
18532;SDS011;9396;51.510;11.934;2023-07-20T08:21:20;11.70;;;3.97;;
18532;SDS011;9396;51.510;11.934;2023-07-20T08:23:47;8.27;;;4.17;;
18532;SDS011;9396;51.510;11.934;2023-07-20T08:26:14;7.20;;;4.23;;
18532;SDS011;9396;51.510;11.934;2023-07-20T08:28:42;6.43;;;4.00;;
18532;SDS011;9396;51.510;11.934;2023-07-20T08:31:10;7.80;;;4.73;;
18532;SDS011;9396;51.510;11.934;2023-07-20T08:33:37;7.67;;;4.87;;
18532;SDS011;9396;51.510;11.934;2023-07-20T08:36:03;3.87;;;3.30;;
18532;SDS011;9396;51.510;11.934;2023-07-20T08:38:32;7.83;;;4.07;;
18532;SDS011;9396;51.510;11.934;2023-07-20T08:40:59;5.27;;;3.10;;
18532;SDS011;9396;51.510;11.934;2023-07-20T08:43:27;7.90;;;3.00;;
18532;SDS011;9396;51.510;11.934;2023-07-20T08:45:54;3.80;;;2.43;;
18532;SDS011;9396;51.510;11.934;2023-07-20T08:48:21;11.53;;;3.23;;
18532;SDS011;9396;51.510;11.934;2023-07-20T08:50:49;7.07;;;2.60;;
18532;SDS011;9396;51.510;11.934;2023-07-20T08:53:17;5.23;;;2.90;;
18532;SDS011;9396;51.510;11.934;2023-07-20T08:55:45;6.43;;;2.60;;
18532;SDS011;9396;51.510;11.934;2023-07-20T08:58:16;8.67;;;3.17;;
18532;SDS011;9396;51.510;11.934;2023-07-20T09:00:43;8.57;;;3.10;;
18532;SDS011;9396;51.510;11.934;2023-07-20T09:03:11;6.67;;;3.67;;
18532;SDS011;9396;51.510;11.934;2023-07-20T09:05:38;7.90;;;4.57;;
18532;SDS011;9396;51.510;11.934;2023-07-20T09:08:05;8.30;;;4.60;;
18532;SDS011;9396;51.510;11.934;2023-07-20T09:10:32;24.33;;;6.77;;
18532;SDS011;9396;51.510;11.934;2023-07-20T09:13:00;11.63;;;7.40;;
18532;SDS011;9396;51.510;11.934;2023-07-20T09:15:30;9.40;;;6.60;;
18532;SDS011;9396;51.510;11.934;2023-07-20T09:18:00;11.63;;;7.07;;
18532;SDS011;9396;51.510;11.934;2023-07-20T09:20:28;6.90;;;6.03;;
18532;SDS011;9396;51.510;11.934;2023-07-20T09:22:58;10.50;;;5.87;;
18532;SDS011;9396;51.510;11.934;2023-07-20T09:25:24;18.70;;;7.23;;
18532;SDS011;9396;51.510;11.934;2023-07-20T09:27:53;12.63;;;7.53;;
18532;SDS011;9396;51.510;11.934;2023-07-20T09:30:24;6.73;;;6.10;;
18532;SDS011;9396;51.510;11.934;2023-07-20T09:32:52;6.13;;;4.50;;
18532;SDS011;9396;51.510;11.934;2023-07-20T09:35:19;6.53;;;5.43;;
18532;SDS011;9396;51.510;11.934;2023-07-20T09:37:47;6.40;;;5.43;;
18532;SDS011;9396;51.510;11.934;2023-07-20T09:40:17;5.93;;;4.77;;
18532;SDS011;9396;51.510;11.934;2023-07-20T09:42:44;7.47;;;6.33;;
18532;SDS011;9396;51.510;11.934;2023-07-20T09:45:11;11.17;;;8.67;;
18532;SDS011;9396;51.510;11.934;2023-07-20T09:47:39;8.80;;;7.13;;
18532;SDS011;9396;51.510;11.934;2023-07-20T09:50:07;9.70;;;6.50;;
18532;SDS011;9396;51.510;11.934;2023-07-20T09:52:39;7.17;;;6.47;;
18532;SDS011;9396;51.510;11.934;2023-07-20T09:55:07;100.87;;;17.17;;
18532;SDS011;9396;51.510;11.934;2023-07-20T09:57:34;15.73;;;7.40;;
18532;SDS011;9396;51.510;11.934;2023-07-20T10:00:02;10.80;;;6.73;;
18532;SDS011;9396;51.510;11.934;2023-07-20T10:02:33;7.57;;;5.90;;
18532;SDS011;9396;51.510;11.934;2023-07-20T10:05:05;7.07;;;5.47;;
18532;SDS011;9396;51.510;11.934;2023-07-20T10:07:35;8.60;;;6.37;;
18532;SDS011;9396;51.510;11.934;2023-07-20T10:10:06;7.43;;;5.90;;
18532;SDS011;9396;51.510;11.934;2023-07-20T10:12:36;6.13;;;5.63;;
18532;SDS011;9396;51.510;11.934;2023-07-20T10:15:06;6.17;;;5.30;;
18532;SDS011;9396;51.510;11.934;2023-07-20T10:17:38;5.73;;;5.20;;
18532;SDS011;9396;51.510;11.934;2023-07-20T10:20:16;7.93;;;5.53;;
18532;SDS011;9396;51.510;11.934;2023-07-20T10:22:46;5.70;;;5.20;;
18532;SDS011;9396;51.510;11.934;2023-07-20T10:25:15;6.40;;;5.80;;
18532;SDS011;9396;51.510;11.934;2023-07-20T10:27:42;7.67;;;5.13;;
18532;SDS011;9396;51.510;11.934;2023-07-20T10:30:10;10.27;;;5.50;;
18532;SDS011;9396;51.510;11.934;2023-07-20T10:32:37;6.10;;;5.57;;
18532;SDS011;9396;51.510;11.934;2023-07-20T10:35:11;7.70;;;5.40;;
18532;SDS011;9396;51.510;11.934;2023-07-20T10:37:47;5.27;;;4.77;;
18532;SDS011;9396;51.510;11.934;2023-07-20T10:40:24;4.23;;;3.93;;
18532;SDS011;9396;51.510;11.934;2023-07-20T10:43:02;4.40;;;4.03;;
18532;SDS011;9396;51.510;11.934;2023-07-20T10:48:18;4.87;;;3.20;;
18532;SDS011;9396;51.510;11.934;2023-07-20T10:50:45;3.47;;;3.17;;
18532;SDS011;9396;51.510;11.934;2023-07-20T10:53:34;3.63;;;3.07;;
18532;SDS011;9396;51.510;11.934;2023-07-20T10:56:07;4.93;;;3.10;;
18532;SDS011;9396;51.510;11.934;2023-07-20T10:58:35;3.43;;;2.50;;
18532;SDS011;9396;51.510;11.934;2023-07-20T11:01:02;3.10;;;1.93;;
18532;SDS011;9396;51.510;11.934;2023-07-20T11:03:32;3.53;;;1.63;;
18532;SDS011;9396;51.510;11.934;2023-07-20T11:06:00;3.10;;;1.27;;
18532;SDS011;9396;51.510;11.934;2023-07-20T11:09:03;1.33;;;1.00;;
18532;SDS011;9396;51.510;11.934;2023-07-20T11:11:33;0.93;;;0.93;;
18532;SDS011;9396;51.510;11.934;2023-07-20T11:14:02;1.20;;;0.83;;
18532;SDS011;9396;51.510;11.934;2023-07-20T11:16:33;1.80;;;0.70;;
18532;SDS011;9396;51.510;11.934;2023-07-20T11:19:01;1.83;;;0.80;;
18532;SDS011;9396;51.510;11.934;2023-07-20T11:21:29;1.80;;;0.70;;
18532;SDS011;9396;51.510;11.934;2023-07-20T11:23:57;0.77;;;0.77;;
18532;SDS011;9396;51.510;11.934;2023-07-20T11:26:24;2.87;;;1.17;;
18532;SDS011;9396;51.510;11.934;2023-07-20T11:28:51;1.50;;;1.10;;
18532;SDS011;9396;51.510;11.934;2023-07-20T11:31:18;1.23;;;1.03;;
18532;SDS011;9396;51.510;11.934;2023-07-20T11:33:45;2.47;;;1.10;;
18532;SDS011;9396;51.510;11.934;2023-07-20T11:36:12;2.53;;;1.10;;
18532;SDS011;9396;51.510;11.934;2023-07-20T11:38:40;1.57;;;1.03;;
18532;SDS011;9396;51.510;11.934;2023-07-20T11:41:10;1.40;;;1.00;;
18532;SDS011;9396;51.510;11.934;2023-07-20T11:43:37;2.17;;;1.10;;
18532;SDS011;9396;51.510;11.934;2023-07-20T11:46:05;1.60;;;1.20;;
18532;SDS011;9396;51.510;11.934;2023-07-20T11:48:32;2.30;;;1.10;;
18532;SDS011;9396;51.510;11.934;2023-07-20T11:50:58;1.77;;;1.20;;
18532;SDS011;9396;51.510;11.934;2023-07-20T11:53:25;2.10;;;1.60;;
18532;SDS011;9396;51.510;11.934;2023-07-20T11:55:52;1.73;;;1.63;;
18532;SDS011;9396;51.510;11.934;2023-07-20T11:58:21;2.63;;;2.13;;
18532;SDS011;9396;51.510;11.934;2023-07-20T12:00:48;3.53;;;1.90;;
18532;SDS011;9396;51.510;11.934;2023-07-20T12:03:15;2.83;;;2.13;;
18532;SDS011;9396;51.510;11.934;2023-07-20T12:05:41;2.70;;;2.50;;
18532;SDS011;9396;51.510;11.934;2023-07-20T12:08:08;3.67;;;2.23;;
18532;SDS011;9396;51.510;11.934;2023-07-20T12:10:38;3.17;;;2.80;;
18532;SDS011;9396;51.510;11.934;2023-07-20T12:13:09;2.27;;;2.07;;
18532;SDS011;9396;51.510;11.934;2023-07-20T12:15:38;2.57;;;2.30;;
18532;SDS011;9396;51.510;11.934;2023-07-20T12:18:05;2.63;;;2.37;;
18532;SDS011;9396;51.510;11.934;2023-07-20T12:20:32;2.40;;;2.20;;
18532;SDS011;9396;51.510;11.934;2023-07-20T12:23:01;2.97;;;2.37;;
18532;SDS011;9396;51.510;11.934;2023-07-20T12:25:33;2.80;;;2.60;;
18532;SDS011;9396;51.510;11.934;2023-07-20T12:28:04;3.20;;;2.60;;
18532;SDS011;9396;51.510;11.934;2023-07-20T12:30:31;3.03;;;2.73;;
18532;SDS011;9396;51.510;11.934;2023-07-20T12:32:59;3.40;;;3.10;;
18532;SDS011;9396;51.510;11.934;2023-07-20T12:35:26;3.03;;;2.83;;
18532;SDS011;9396;51.510;11.934;2023-07-20T12:37:53;4.23;;;3.23;;
18532;SDS011;9396;51.510;11.934;2023-07-20T12:40:20;3.37;;;3.07;;
18532;SDS011;9396;51.510;11.934;2023-07-20T12:42:46;5.10;;;4.10;;
18532;SDS011;9396;51.510;11.934;2023-07-20T12:45:13;3.30;;;3.10;;
18532;SDS011;9396;51.510;11.934;2023-07-20T12:47:40;3.30;;;3.10;;
18532;SDS011;9396;51.510;11.934;2023-07-20T12:50:10;4.33;;;3.20;;
18532;SDS011;9396;51.510;11.934;2023-07-20T12:52:37;3.57;;;3.23;;
18532;SDS011;9396;51.510;11.934;2023-07-20T12:55:05;4.13;;;3.20;;
18532;SDS011;9396;51.510;11.934;2023-07-20T12:57:32;3.40;;;3.10;;
18532;SDS011;9396;51.510;11.934;2023-07-20T12:59:59;3.43;;;3.00;;
18532;SDS011;9396;51.510;11.934;2023-07-20T13:02:26;3.23;;;2.97;;
18532;SDS011;9396;51.510;11.934;2023-07-20T13:04:53;2.70;;;2.50;;
18532;SDS011;9396;51.510;11.934;2023-07-20T13:07:28;4.83;;;2.90;;
18532;SDS011;9396;51.510;11.934;2023-07-20T13:09:56;2.87;;;2.40;;
18532;SDS011;9396;51.510;11.934;2023-07-20T13:12:24;2.70;;;2.50;;
18532;SDS011;9396;51.510;11.934;2023-07-20T13:14:50;2.63;;;2.43;;
18532;SDS011;9396;51.510;11.934;2023-07-20T13:17:17;3.53;;;2.90;;
18532;SDS011;9396;51.510;11.934;2023-07-20T13:19:44;4.87;;;2.60;;
18532;SDS011;9396;51.510;11.934;2023-07-20T13:22:11;2.70;;;2.50;;
18532;SDS011;9396;51.510;11.934;2023-07-20T13:24:41;4.00;;;2.27;;
18532;SDS011;9396;51.510;11.934;2023-07-20T13:27:07;2.30;;;2.07;;
18532;SDS011;9396;51.510;11.934;2023-07-20T13:29:34;2.00;;;1.70;;
18532;SDS011;9396;51.510;11.934;2023-07-20T13:32:01;1.83;;;1.67;;
18532;SDS011;9396;51.510;11.934;2023-07-20T13:34:29;1.60;;;1.50;;
18532;SDS011;9396;51.510;11.934;2023-07-20T13:36:55;2.10;;;1.73;;
18532;SDS011;9396;51.510;11.934;2023-07-20T13:39:23;2.20;;;1.40;;
18532;SDS011;9396;51.510;11.934;2023-07-20T13:41:53;1.87;;;1.47;;
18532;SDS011;9396;51.510;11.934;2023-07-20T13:44:20;1.73;;;1.60;;
18532;SDS011;9396;51.510;11.934;2023-07-20T13:46:47;1.97;;;1.53;;
18532;SDS011;9396;51.510;11.934;2023-07-20T13:49:14;1.97;;;1.47;;
18532;SDS011;9396;51.510;11.934;2023-07-20T13:51:41;1.43;;;1.20;;
18532;SDS011;9396;51.510;11.934;2023-07-20T13:54:08;1.17;;;1.07;;
18532;SDS011;9396;51.510;11.934;2023-07-20T13:56:34;1.40;;;1.30;;
18532;SDS011;9396;51.510;11.934;2023-07-20T13:59:03;1.40;;;1.17;;
18532;SDS011;9396;51.510;11.934;2023-07-20T14:01:29;1.27;;;1.17;;
18532;SDS011;9396;51.510;11.934;2023-07-20T14:03:58;1.13;;;0.90;;
18532;SDS011;9396;51.510;11.934;2023-07-20T14:06:24;1.30;;;1.20;;
18532;SDS011;9396;51.510;11.934;2023-07-20T14:08:51;1.93;;;1.20;;
18532;SDS011;9396;51.510;11.934;2023-07-20T14:11:18;1.60;;;1.20;;
18532;SDS011;9396;51.510;11.934;2023-07-20T14:13:45;1.60;;;0.80;;
18532;SDS011;9396;51.510;11.934;2023-07-20T14:16:13;3.70;;;0.93;;
18532;SDS011;9396;51.510;11.934;2023-07-20T14:18:39;1.10;;;1.00;;
18532;SDS011;9396;51.510;11.934;2023-07-20T14:21:06;1.27;;;0.90;;
18532;SDS011;9396;51.510;11.934;2023-07-20T14:23:33;1.20;;;0.87;;
18532;SDS011;9396;51.510;11.934;2023-07-20T14:26:01;0.70;;;0.70;;
18532;SDS011;9396;51.510;11.934;2023-07-20T14:28:30;1.60;;;1.00;;
18532;SDS011;9396;51.510;11.934;2023-07-20T14:30:56;0.97;;;0.80;;
18532;SDS011;9396;51.510;11.934;2023-07-20T14:33:24;1.47;;;0.90;;
18532;SDS011;9396;51.510;11.934;2023-07-20T14:35:51;1.90;;;0.60;;
18532;SDS011;9396;51.510;11.934;2023-07-20T14:38:18;2.83;;;0.90;;
18532;SDS011;9396;51.510;11.934;2023-07-20T14:40:44;2.57;;;0.80;;
18532;SDS011;9396;51.510;11.934;2023-07-20T14:43:11;1.07;;;0.70;;
18532;SDS011;9396;51.510;11.934;2023-07-20T14:45:39;0.83;;;0.70;;
18532;SDS011;9396;51.510;11.934;2023-07-20T14:48:06;0.70;;;0.60;;
18532;SDS011;9396;51.510;11.934;2023-07-20T14:50:35;1.07;;;0.60;;
18532;SDS011;9396;51.510;11.934;2023-07-20T14:53:01;1.10;;;0.60;;